sensor_id;sensor_type;location;lat;lon;timestamp;temperature;humidity
4054;DHT22;2042;47.956;9.222;2024-02-21T00:00:46;0.10;88.20
4054;DHT22;2042;47.956;9.222;2024-02-21T00:03:12;0.00;88.10
4054;DHT22;2042;47.956;9.222;2024-02-21T00:05:38;0.00;88.20
4054;DHT22;2042;47.956;9.222;2024-02-21T00:08:04;0.00;88.30
4054;DHT22;2042;47.956;9.222;2024-02-21T00:10:29;0.00;88.40
4054;DHT22;2042;47.956;9.222;2024-02-21T00:12:57;-0.10;88.50
4054;DHT22;2042;47.956;9.222;2024-02-21T00:15:25;-0.10;88.70
4054;DHT22;2042;47.956;9.222;2024-02-21T00:17:50;-0.10;88.90
4054;DHT22;2042;47.956;9.222;2024-02-21T00:20:16;-0.10;89.10
4054;DHT22;2042;47.956;9.222;2024-02-21T00:30:03;-0.10;90.10
4054;DHT22;2042;47.956;9.222;2024-02-21T00:35:00;-0.10;90.20
4054;DHT22;2042;47.956;9.222;2024-02-21T00:37:26;-0.10;90.50
4054;DHT22;2042;47.956;9.222;2024-02-21T00:39:54;-0.10;90.50
4054;DHT22;2042;47.956;9.222;2024-02-21T00:42:19;-0.10;90.70
4054;DHT22;2042;47.956;9.222;2024-02-21T00:44:45;-0.10;90.80
4054;DHT22;2042;47.956;9.222;2024-02-21T00:59:24;-0.10;90.50
4054;DHT22;2042;47.956;9.222;2024-02-21T01:01:49;-0.20;90.70
4054;DHT22;2042;47.956;9.222;2024-02-21T01:04:15;-0.20;90.70
4054;DHT22;2042;47.956;9.222;2024-02-21T01:06:41;-0.20;90.70
4054;DHT22;2042;47.956;9.222;2024-02-21T01:09:10;-0.20;90.90
4054;DHT22;2042;47.956;9.222;2024-02-21T01:45:54;0.10;92.30
4054;DHT22;2042;47.956;9.222;2024-02-21T01:48:21;0.20;92.70
4054;DHT22;2042;47.956;9.222;2024-02-21T01:50:49;0.30;92.80
4054;DHT22;2042;47.956;9.222;2024-02-21T01:53:21;0.30;93.00
4054;DHT22;2042;47.956;9.222;2024-02-21T01:55:47;0.40;93.20
4054;DHT22;2042;47.956;9.222;2024-02-21T01:58:16;0.50;93.30
4054;DHT22;2042;47.956;9.222;2024-02-21T02:00:43;0.50;93.30
4054;DHT22;2042;47.956;9.222;2024-02-21T02:03:11;0.50;93.20
4054;DHT22;2042;47.956;9.222;2024-02-21T02:05:51;0.40;93.20
4054;DHT22;2042;47.956;9.222;2024-02-21T02:08:20;0.40;93.30
4054;DHT22;2042;47.956;9.222;2024-02-21T02:10:48;0.40;93.50
4054;DHT22;2042;47.956;9.222;2024-02-21T02:13:13;0.50;93.50
4054;DHT22;2042;47.956;9.222;2024-02-21T02:15:40;0.50;93.60
4054;DHT22;2042;47.956;9.222;2024-02-21T02:18:06;0.40;93.50
4054;DHT22;2042;47.956;9.222;2024-02-21T02:20:32;0.50;93.60
4054;DHT22;2042;47.956;9.222;2024-02-21T02:22:59;0.50;93.60
4054;DHT22;2042;47.956;9.222;2024-02-21T02:25:26;0.40;93.60
4054;DHT22;2042;47.956;9.222;2024-02-21T02:27:53;0.40;93.70
4054;DHT22;2042;47.956;9.222;2024-02-21T02:30:18;0.50;93.70
4054;DHT22;2042;47.956;9.222;2024-02-21T02:32:45;0.50;93.90
4054;DHT22;2042;47.956;9.222;2024-02-21T02:35:12;0.50;94.00
4054;DHT22;2042;47.956;9.222;2024-02-21T02:37:37;0.50;94.00
4054;DHT22;2042;47.956;9.222;2024-02-21T02:40:08;0.50;94.10
4054;DHT22;2042;47.956;9.222;2024-02-21T02:42:34;0.60;94.20
4054;DHT22;2042;47.956;9.222;2024-02-21T02:44:59;0.60;94.20
4054;DHT22;2042;47.956;9.222;2024-02-21T02:47:25;0.60;94.20
4054;DHT22;2042;47.956;9.222;2024-02-21T02:49:50;0.60;94.30
4054;DHT22;2042;47.956;9.222;2024-02-21T02:52:19;0.60;94.30
4054;DHT22;2042;47.956;9.222;2024-02-21T02:54:45;0.60;94.40
4054;DHT22;2042;47.956;9.222;2024-02-21T02:57:11;0.70;94.50
4054;DHT22;2042;47.956;9.222;2024-02-21T02:59:37;0.70;94.60
4054;DHT22;2042;47.956;9.222;2024-02-21T03:02:03;0.70;94.90
4054;DHT22;2042;47.956;9.222;2024-02-21T03:04:28;0.70;94.70
4054;DHT22;2042;47.956;9.222;2024-02-21T03:06:54;0.70;94.70
4054;DHT22;2042;47.956;9.222;2024-02-21T03:09:20;0.70;94.70
4054;DHT22;2042;47.956;9.222;2024-02-21T03:11:45;0.70;94.70
4054;DHT22;2042;47.956;9.222;2024-02-21T03:14:11;0.80;94.80
4054;DHT22;2042;47.956;9.222;2024-02-21T03:16:37;0.70;63.90
4054;DHT22;2042;47.956;9.222;2024-02-21T03:19:02;0.70;64.00
4054;DHT22;2042;47.956;9.222;2024-02-21T03:21:28;0.70;64.10
4054;DHT22;2042;47.956;9.222;2024-02-21T03:23:54;0.80;64.20
4054;DHT22;2042;47.956;9.222;2024-02-21T03:26:20;0.80;64.30
4054;DHT22;2042;47.956;9.222;2024-02-21T03:28:45;0.80;64.30
4054;DHT22;2042;47.956;9.222;2024-02-21T03:31:11;0.80;64.30
4054;DHT22;2042;47.956;9.222;2024-02-21T03:33:42;0.80;64.40
4054;DHT22;2042;47.956;9.222;2024-02-21T03:36:13;0.80;64.60
4054;DHT22;2042;47.956;9.222;2024-02-21T03:38:40;0.80;64.50
4054;DHT22;2042;47.956;9.222;2024-02-21T03:41:05;0.70;64.50
4054;DHT22;2042;47.956;9.222;2024-02-21T03:43:31;0.80;64.60
4054;DHT22;2042;47.956;9.222;2024-02-21T03:45:57;0.80;64.80
4054;DHT22;2042;47.956;9.222;2024-02-21T03:48:22;0.90;65.20
4054;DHT22;2042;47.956;9.222;2024-02-21T03:50:48;1.00;65.60
4054;DHT22;2042;47.956;9.222;2024-02-21T03:53:13;1.10;66.00
4054;DHT22;2042;47.956;9.222;2024-02-21T03:55:39;1.20;66.20
4054;DHT22;2042;47.956;9.222;2024-02-21T03:58:05;1.20;66.20
4054;DHT22;2042;47.956;9.222;2024-02-21T04:00:31;1.20;66.30
4054;DHT22;2042;47.956;9.222;2024-02-21T04:02:56;1.30;66.70
4054;DHT22;2042;47.956;9.222;2024-02-21T04:05:22;1.40;67.20
4054;DHT22;2042;47.956;9.222;2024-02-21T04:07:48;1.50;67.50
4054;DHT22;2042;47.956;9.222;2024-02-21T04:10:14;1.50;67.60
4054;DHT22;2042;47.956;9.222;2024-02-21T04:12:39;1.60;67.50
4054;DHT22;2042;47.956;9.222;2024-02-21T04:15:05;1.60;66.30
4054;DHT22;2042;47.956;9.222;2024-02-21T04:17:31;1.60;66.40
4054;DHT22;2042;47.956;9.222;2024-02-21T04:20:02;1.70;66.60
4054;DHT22;2042;47.956;9.222;2024-02-21T04:22:33;1.80;67.00
4054;DHT22;2042;47.956;9.222;2024-02-21T04:25:00;1.90;67.20
4054;DHT22;2042;47.956;9.222;2024-02-21T04:27:26;2.00;67.50
4054;DHT22;2042;47.956;9.222;2024-02-21T04:29:52;2.10;67.80
4054;DHT22;2042;47.956;9.222;2024-02-21T04:32:18;2.00;67.80
4054;DHT22;2042;47.956;9.222;2024-02-21T04:34:44;2.10;68.00
4054;DHT22;2042;47.956;9.222;2024-02-21T04:37:09;2.20;68.20
4054;DHT22;2042;47.956;9.222;2024-02-21T04:39:35;2.20;68.20
4054;DHT22;2042;47.956;9.222;2024-02-21T04:42:01;2.20;68.20
4054;DHT22;2042;47.956;9.222;2024-02-21T04:44:26;2.20;68.10
4054;DHT22;2042;47.956;9.222;2024-02-21T04:46:52;2.10;68.00
4054;DHT22;2042;47.956;9.222;2024-02-21T04:49:18;2.10;68.00
4054;DHT22;2042;47.956;9.222;2024-02-21T04:51:44;2.10;68.00
4054;DHT22;2042;47.956;9.222;2024-02-21T04:54:09;2.10;67.90
4054;DHT22;2042;47.956;9.222;2024-02-21T04:56:35;2.20;68.10
4054;DHT22;2042;47.956;9.222;2024-02-21T04:59:01;2.20;68.30
4054;DHT22;2042;47.956;9.222;2024-02-21T05:01:28;2.20;68.40
4054;DHT22;2042;47.956;9.222;2024-02-21T05:04:00;2.30;68.50
4054;DHT22;2042;47.956;9.222;2024-02-21T05:06:38;2.30;68.50
4054;DHT22;2042;47.956;9.222;2024-02-21T05:09:04;2.20;68.30
4054;DHT22;2042;47.956;9.222;2024-02-21T05:11:31;2.10;67.80
4054;DHT22;2042;47.956;9.222;2024-02-21T05:13:56;1.90;67.10
4054;DHT22;2042;47.956;9.222;2024-02-21T05:16:22;1.90;66.80
4054;DHT22;2042;47.956;9.222;2024-02-21T05:18:47;1.70;66.50
4054;DHT22;2042;47.956;9.222;2024-02-21T05:21:13;1.80;66.80
4054;DHT22;2042;47.956;9.222;2024-02-21T05:23:39;1.70;66.50
4054;DHT22;2042;47.956;9.222;2024-02-21T05:26:05;1.60;66.50
4054;DHT22;2042;47.956;9.222;2024-02-21T05:28:31;1.60;66.50
4054;DHT22;2042;47.956;9.222;2024-02-21T05:30:57;1.60;66.50
4054;DHT22;2042;47.956;9.222;2024-02-21T05:33:22;1.60;66.70
4054;DHT22;2042;47.956;9.222;2024-02-21T05:35:48;1.60;66.80
4054;DHT22;2042;47.956;9.222;2024-02-21T05:38:14;1.60;66.90
4054;DHT22;2042;47.956;9.222;2024-02-21T05:40:40;1.70;67.30
4054;DHT22;2042;47.956;9.222;2024-02-21T05:43:09;1.80;67.60
4054;DHT22;2042;47.956;9.222;2024-02-21T05:45:35;1.80;67.60
4054;DHT22;2042;47.956;9.222;2024-02-21T05:48:01;1.90;67.60
4054;DHT22;2042;47.956;9.222;2024-02-21T05:50:28;1.80;67.50
4054;DHT22;2042;47.956;9.222;2024-02-21T05:52:56;1.70;67.00
4054;DHT22;2042;47.956;9.222;2024-02-21T05:55:22;1.60;66.70
4054;DHT22;2042;47.956;9.222;2024-02-21T05:57:48;1.50;66.60
4054;DHT22;2042;47.956;9.222;2024-02-21T06:00:15;1.50;66.50
4054;DHT22;2042;47.956;9.222;2024-02-21T06:02:41;1.60;66.70
4054;DHT22;2042;47.956;9.222;2024-02-21T06:05:07;1.60;66.80
4054;DHT22;2042;47.956;9.222;2024-02-21T06:07:34;1.50;66.60
4054;DHT22;2042;47.956;9.222;2024-02-21T06:10:02;1.30;65.90
4054;DHT22;2042;47.956;9.222;2024-02-21T06:12:28;1.10;65.10
4054;DHT22;2042;47.956;9.222;2024-02-21T06:14:53;1.00;64.50
4054;DHT22;2042;47.956;9.222;2024-02-21T06:17:19;0.80;64.10
4054;DHT22;2042;47.956;9.222;2024-02-21T06:19:45;0.80;64.10
4054;DHT22;2042;47.956;9.222;2024-02-21T06:22:11;0.70;64.20
4054;DHT22;2042;47.956;9.222;2024-02-21T06:24:37;0.70;64.20
4054;DHT22;2042;47.956;9.222;2024-02-21T06:27:04;0.70;64.30
4054;DHT22;2042;47.956;9.222;2024-02-21T06:29:31;0.70;64.30
4054;DHT22;2042;47.956;9.222;2024-02-21T06:31:57;0.60;64.10
4054;DHT22;2042;47.956;9.222;2024-02-21T06:34:23;0.60;64.20
4054;DHT22;2042;47.956;9.222;2024-02-21T06:36:49;0.60;64.30
4054;DHT22;2042;47.956;9.222;2024-02-21T06:39:15;0.60;64.40
4054;DHT22;2042;47.956;9.222;2024-02-21T06:41:41;0.70;64.60
4054;DHT22;2042;47.956;9.222;2024-02-21T06:44:06;0.70;64.70
4054;DHT22;2042;47.956;9.222;2024-02-21T06:46:32;0.80;64.90
4054;DHT22;2042;47.956;9.222;2024-02-21T06:48:59;0.90;65.20
4054;DHT22;2042;47.956;9.222;2024-02-21T06:51:31;1.10;65.60
4054;DHT22;2042;47.956;9.222;2024-02-21T06:53:57;1.30;65.90
4054;DHT22;2042;47.956;9.222;2024-02-21T06:56:24;1.60;66.30
4054;DHT22;2042;47.956;9.222;2024-02-21T06:58:57;1.90;66.70
4054;DHT22;2042;47.956;9.222;2024-02-21T07:01:24;2.10;67.80
4054;DHT22;2042;47.956;9.222;2024-02-21T07:03:50;2.10;68.20
4054;DHT22;2042;47.956;9.222;2024-02-21T07:06:15;2.10;68.30
4054;DHT22;2042;47.956;9.222;2024-02-21T07:08:41;2.10;68.30
4054;DHT22;2042;47.956;9.222;2024-02-21T07:11:07;2.20;68.50
4054;DHT22;2042;47.956;9.222;2024-02-21T07:13:33;2.20;68.50
4054;DHT22;2042;47.956;9.222;2024-02-21T07:15:58;2.20;68.50
4054;DHT22;2042;47.956;9.222;2024-02-21T07:18:24;2.30;68.60
4054;DHT22;2042;47.956;9.222;2024-02-21T07:20:51;2.30;68.70
4054;DHT22;2042;47.956;9.222;2024-02-21T07:23:18;2.50;68.90
4054;DHT22;2042;47.956;9.222;2024-02-21T07:25:43;2.60;69.10
4054;DHT22;2042;47.956;9.222;2024-02-21T07:28:09;2.80;69.40
4054;DHT22;2042;47.956;9.222;2024-02-21T07:30:35;2.90;69.70
4054;DHT22;2042;47.956;9.222;2024-02-21T07:33:00;3.00;70.00
4054;DHT22;2042;47.956;9.222;2024-02-21T07:35:26;3.10;70.20
4054;DHT22;2042;47.956;9.222;2024-02-21T07:37:51;3.40;70.70
4054;DHT22;2042;47.956;9.222;2024-02-21T07:40:17;3.80;71.10
4054;DHT22;2042;47.956;9.222;2024-02-21T07:42:43;4.80;71.10
4054;DHT22;2042;47.956;9.222;2024-02-21T07:45:09;5.80;64.90
4054;DHT22;2042;47.956;9.222;2024-02-21T07:47:36;6.60;77.60
4054;DHT22;2042;47.956;9.222;2024-02-21T07:50:03;7.20;78.10
4054;DHT22;2042;47.956;9.222;2024-02-21T07:52:29;7.90;61.30
4054;DHT22;2042;47.956;9.222;2024-02-21T07:54:54;8.70;58.80
4054;DHT22;2042;47.956;9.222;2024-02-21T07:57:20;9.30;51.50
4054;DHT22;2042;47.956;9.222;2024-02-21T07:59:46;9.90;41.40
4054;DHT22;2042;47.956;9.222;2024-02-21T08:02:15;10.20;25.70
4054;DHT22;2042;47.956;9.222;2024-02-21T08:04:41;10.50;12.80
4054;DHT22;2042;47.956;9.222;2024-02-21T08:07:07;10.80;2.00
4054;DHT22;2042;47.956;9.222;2024-02-21T08:09:32;10.70;1.00
4054;DHT22;2042;47.956;9.222;2024-02-21T08:11:58;10.60;1.00
4054;DHT22;2042;47.956;9.222;2024-02-21T08:14:24;10.70;1.00
4054;DHT22;2042;47.956;9.222;2024-02-21T08:16:51;10.80;1.00
4054;DHT22;2042;47.956;9.222;2024-02-21T08:19:18;10.60;1.00
4054;DHT22;2042;47.956;9.222;2024-02-21T08:21:44;10.20;1.00
4054;DHT22;2042;47.956;9.222;2024-02-21T08:24:12;9.80;1.00
4054;DHT22;2042;47.956;9.222;2024-02-21T08:26:40;9.70;1.00
4054;DHT22;2042;47.956;9.222;2024-02-21T08:29:06;9.80;1.00
4054;DHT22;2042;47.956;9.222;2024-02-21T08:31:32;10.00;1.00
4054;DHT22;2042;47.956;9.222;2024-02-21T08:33:58;10.10;1.00
4054;DHT22;2042;47.956;9.222;2024-02-21T08:36:30;9.90;1.00
4054;DHT22;2042;47.956;9.222;2024-02-21T08:38:56;9.90;1.00
4054;DHT22;2042;47.956;9.222;2024-02-21T08:41:25;10.00;1.00
4054;DHT22;2042;47.956;9.222;2024-02-21T08:43:54;10.10;1.00
4054;DHT22;2042;47.956;9.222;2024-02-21T08:46:20;10.50;1.00
4054;DHT22;2042;47.956;9.222;2024-02-21T08:48:46;10.80;1.00
4054;DHT22;2042;47.956;9.222;2024-02-21T08:51:15;11.30;1.00
4054;DHT22;2042;47.956;9.222;2024-02-21T08:53:41;11.60;1.00
4054;DHT22;2042;47.956;9.222;2024-02-21T08:56:07;11.70;1.00
4054;DHT22;2042;47.956;9.222;2024-02-21T08:58:33;11.60;1.00
4054;DHT22;2042;47.956;9.222;2024-02-21T09:00:59;11.60;1.00
4054;DHT22;2042;47.956;9.222;2024-02-21T09:03:26;11.80;1.00
4054;DHT22;2042;47.956;9.222;2024-02-21T09:05:52;12.00;1.00
4054;DHT22;2042;47.956;9.222;2024-02-21T09:08:18;12.30;1.00
4054;DHT22;2042;47.956;9.222;2024-02-21T09:10:44;12.70;1.00
4054;DHT22;2042;47.956;9.222;2024-02-21T09:13:10;13.00;1.00
4054;DHT22;2042;47.956;9.222;2024-02-21T09:15:36;13.10;1.00
4054;DHT22;2042;47.956;9.222;2024-02-21T09:18:01;13.10;1.00
4054;DHT22;2042;47.956;9.222;2024-02-21T09:20:28;13.10;1.00
4054;DHT22;2042;47.956;9.222;2024-02-21T09:22:54;12.80;1.00
4054;DHT22;2042;47.956;9.222;2024-02-21T09:25:20;12.70;1.00
4054;DHT22;2042;47.956;9.222;2024-02-21T09:27:46;12.30;1.00
4054;DHT22;2042;47.956;9.222;2024-02-21T09:30:11;11.80;1.00
4054;DHT22;2042;47.956;9.222;2024-02-21T09:32:38;11.50;1.00
4054;DHT22;2042;47.956;9.222;2024-02-21T09:35:04;11.30;1.00
4054;DHT22;2042;47.956;9.222;2024-02-21T09:37:31;11.30;1.00
4054;DHT22;2042;47.956;9.222;2024-02-21T09:39:57;11.50;1.00
4054;DHT22;2042;47.956;9.222;2024-02-21T09:42:38;11.80;1.00
4054;DHT22;2042;47.956;9.222;2024-02-21T09:45:24;12.00;1.00
4054;DHT22;2042;47.956;9.222;2024-02-21T09:50:50;12.60;1.00
4054;DHT22;2042;47.956;9.222;2024-02-21T09:53:18;12.70;1.00
4054;DHT22;2042;47.956;9.222;2024-02-21T09:55:45;12.90;1.00
4054;DHT22;2042;47.956;9.222;2024-02-21T09:58:12;13.10;1.00
4054;DHT22;2042;47.956;9.222;2024-02-21T10:00:38;13.50;1.00
4054;DHT22;2042;47.956;9.222;2024-02-21T10:03:04;13.90;1.00
4054;DHT22;2042;47.956;9.222;2024-02-21T10:05:35;14.00;1.00
4054;DHT22;2042;47.956;9.222;2024-02-21T10:08:01;14.40;1.00
4054;DHT22;2042;47.956;9.222;2024-02-21T10:10:27;14.80;1.00
4054;DHT22;2042;47.956;9.222;2024-02-21T10:12:56;14.90;1.00
4054;DHT22;2042;47.956;9.222;2024-02-21T10:15:24;14.90;1.00
4054;DHT22;2042;47.956;9.222;2024-02-21T10:18:10;14.70;1.00
4054;DHT22;2042;47.956;9.222;2024-02-21T10:20:36;14.40;1.00
4054;DHT22;2042;47.956;9.222;2024-02-21T10:23:03;14.60;1.00
4054;DHT22;2042;47.956;9.222;2024-02-21T10:25:36;15.20;1.00
4054;DHT22;2042;47.956;9.222;2024-02-21T10:28:12;16.00;1.00
4054;DHT22;2042;47.956;9.222;2024-02-21T10:30:38;16.70;1.00
4054;DHT22;2042;47.956;9.222;2024-02-21T10:33:05;16.80;1.00
4054;DHT22;2042;47.956;9.222;2024-02-21T10:35:32;16.30;1.00
4054;DHT22;2042;47.956;9.222;2024-02-21T10:37:59;15.60;1.00
4054;DHT22;2042;47.956;9.222;2024-02-21T10:40:29;15.60;1.00
4054;DHT22;2042;47.956;9.222;2024-02-21T10:43:00;15.40;1.00
4054;DHT22;2042;47.956;9.222;2024-02-21T10:45:30;15.00;1.00
4054;DHT22;2042;47.956;9.222;2024-02-21T10:48:11;14.40;1.00
4054;DHT22;2042;47.956;9.222;2024-02-21T10:51:03;14.10;1.00
4054;DHT22;2042;47.956;9.222;2024-02-21T10:53:54;13.90;1.00
4054;DHT22;2042;47.956;9.222;2024-02-21T10:58:53;14.00;1.00
4054;DHT22;2042;47.956;9.222;2024-02-21T11:01:19;13.80;1.00
4054;DHT22;2042;47.956;9.222;2024-02-21T11:03:48;14.00;1.00
4054;DHT22;2042;47.956;9.222;2024-02-21T11:06:15;13.90;1.00
4054;DHT22;2042;47.956;9.222;2024-02-21T11:08:41;14.20;1.00
4054;DHT22;2042;47.956;9.222;2024-02-21T11:11:07;14.80;1.00
4054;DHT22;2042;47.956;9.222;2024-02-21T11:13:36;15.40;1.00
4054;DHT22;2042;47.956;9.222;2024-02-21T11:16:10;16.10;1.00
4054;DHT22;2042;47.956;9.222;2024-02-21T11:18:39;16.40;1.00
4054;DHT22;2042;47.956;9.222;2024-02-21T11:21:04;16.40;1.00
4054;DHT22;2042;47.956;9.222;2024-02-21T11:23:31;16.50;1.00
4054;DHT22;2042;47.956;9.222;2024-02-21T11:26:09;16.80;1.00
4054;DHT22;2042;47.956;9.222;2024-02-21T11:28:36;17.40;1.00
4054;DHT22;2042;47.956;9.222;2024-02-21T11:31:13;17.80;1.00
4054;DHT22;2042;47.956;9.222;2024-02-21T11:33:42;17.90;1.00
4054;DHT22;2042;47.956;9.222;2024-02-21T11:36:09;18.10;1.00
4054;DHT22;2042;47.956;9.222;2024-02-21T11:38:35;18.40;1.00
4054;DHT22;2042;47.956;9.222;2024-02-21T11:41:01;18.60;1.00
4054;DHT22;2042;47.956;9.222;2024-02-21T11:43:27;18.90;1.00
4054;DHT22;2042;47.956;9.222;2024-02-21T11:46:02;18.80;1.00
4054;DHT22;2042;47.956;9.222;2024-02-21T11:48:29;18.70;1.00
4054;DHT22;2042;47.956;9.222;2024-02-21T11:50:56;18.60;1.00
4054;DHT22;2042;47.956;9.222;2024-02-21T11:53:22;18.60;1.00
4054;DHT22;2042;47.956;9.222;2024-02-21T11:55:48;18.10;1.00
4054;DHT22;2042;47.956;9.222;2024-02-21T11:58:14;17.80;1.00
4054;DHT22;2042;47.956;9.222;2024-02-21T12:00:40;17.50;1.00
4054;DHT22;2042;47.956;9.222;2024-02-21T12:03:07;17.80;1.00
4054;DHT22;2042;47.956;9.222;2024-02-21T12:05:33;17.70;1.00
4054;DHT22;2042;47.956;9.222;2024-02-21T12:07:59;17.80;1.00
4054;DHT22;2042;47.956;9.222;2024-02-21T12:10:28;18.50;1.00
4054;DHT22;2042;47.956;9.222;2024-02-21T12:12:54;19.00;1.00
4054;DHT22;2042;47.956;9.222;2024-02-21T12:15:31;18.60;1.00
4054;DHT22;2042;47.956;9.222;2024-02-21T12:17:57;18.40;1.00
4054;DHT22;2042;47.956;9.222;2024-02-21T12:20:25;18.00;1.00
4054;DHT22;2042;47.956;9.222;2024-02-21T12:22:51;17.50;1.00
4054;DHT22;2042;47.956;9.222;2024-02-21T12:25:20;17.30;1.00
4054;DHT22;2042;47.956;9.222;2024-02-21T12:27:51;17.00;1.00
4054;DHT22;2042;47.956;9.222;2024-02-21T12:30:17;16.60;1.00
4054;DHT22;2042;47.956;9.222;2024-02-21T12:32:43;16.40;1.00
4054;DHT22;2042;47.956;9.222;2024-02-21T12:35:09;16.20;1.00
4054;DHT22;2042;47.956;9.222;2024-02-21T12:37:35;15.60;1.00
4054;DHT22;2042;47.956;9.222;2024-02-21T12:40:00;14.90;1.00
4054;DHT22;2042;47.956;9.222;2024-02-21T12:42:26;14.40;1.00
4054;DHT22;2042;47.956;9.222;2024-02-21T12:44:52;14.30;1.00
4054;DHT22;2042;47.956;9.222;2024-02-21T12:47:18;14.20;1.00
4054;DHT22;2042;47.956;9.222;2024-02-21T12:49:45;14.50;1.00
4054;DHT22;2042;47.956;9.222;2024-02-21T12:52:11;14.80;1.00
4054;DHT22;2042;47.956;9.222;2024-02-21T12:54:37;14.80;1.00
4054;DHT22;2042;47.956;9.222;2024-02-21T12:57:03;14.70;1.00
4054;DHT22;2042;47.956;9.222;2024-02-21T12:59:29;14.40;1.00
4054;DHT22;2042;47.956;9.222;2024-02-21T13:01:55;14.00;1.00
4054;DHT22;2042;47.956;9.222;2024-02-21T13:04:21;13.80;1.00
4054;DHT22;2042;47.956;9.222;2024-02-21T13:06:51;13.90;1.00
4054;DHT22;2042;47.956;9.222;2024-02-21T13:09:17;13.90;1.00
4054;DHT22;2042;47.956;9.222;2024-02-21T13:11:43;13.80;1.00
4054;DHT22;2042;47.956;9.222;2024-02-21T13:14:11;13.70;1.00
4054;DHT22;2042;47.956;9.222;2024-02-21T13:16:37;13.80;1.00
4054;DHT22;2042;47.956;9.222;2024-02-21T13:19:05;13.90;1.00
4054;DHT22;2042;47.956;9.222;2024-02-21T13:21:31;14.20;1.00
4054;DHT22;2042;47.956;9.222;2024-02-21T13:23:56;14.30;1.00
4054;DHT22;2042;47.956;9.222;2024-02-21T13:26:22;13.90;1.00
4054;DHT22;2042;47.956;9.222;2024-02-21T13:28:48;13.70;1.00
4054;DHT22;2042;47.956;9.222;2024-02-21T13:31:14;13.90;1.00
4054;DHT22;2042;47.956;9.222;2024-02-21T13:33:42;13.80;1.00
4054;DHT22;2042;47.956;9.222;2024-02-21T13:36:07;13.70;1.00
4054;DHT22;2042;47.956;9.222;2024-02-21T13:38:33;13.70;1.00
4054;DHT22;2042;47.956;9.222;2024-02-21T13:40:59;13.70;1.00
4054;DHT22;2042;47.956;9.222;2024-02-21T13:43:25;13.60;1.00
4054;DHT22;2042;47.956;9.222;2024-02-21T13:46:01;13.30;1.00
4054;DHT22;2042;47.956;9.222;2024-02-21T13:48:35;13.10;1.00
4054;DHT22;2042;47.956;9.222;2024-02-21T13:51:01;12.90;1.00
4054;DHT22;2042;47.956;9.222;2024-02-21T13:53:28;12.80;1.00
4054;DHT22;2042;47.956;9.222;2024-02-21T13:55:53;12.70;1.00
4054;DHT22;2042;47.956;9.222;2024-02-21T13:58:19;12.80;1.00
4054;DHT22;2042;47.956;9.222;2024-02-21T14:00:45;12.90;1.00
4054;DHT22;2042;47.956;9.222;2024-02-21T14:03:11;12.80;1.00
4054;DHT22;2042;47.956;9.222;2024-02-21T14:05:36;12.60;1.00
4054;DHT22;2042;47.956;9.222;2024-02-21T14:08:03;12.70;1.00
4054;DHT22;2042;47.956;9.222;2024-02-21T14:10:30;12.90;1.00
4054;DHT22;2042;47.956;9.222;2024-02-21T14:12:56;13.10;1.00
4054;DHT22;2042;47.956;9.222;2024-02-21T14:15:22;13.20;1.00
4054;DHT22;2042;47.956;9.222;2024-02-21T14:17:48;13.00;1.00
4054;DHT22;2042;47.956;9.222;2024-02-21T14:20:13;12.90;1.00
4054;DHT22;2042;47.956;9.222;2024-02-21T14:22:39;12.90;1.00
4054;DHT22;2042;47.956;9.222;2024-02-21T14:25:05;13.00;1.00
4054;DHT22;2042;47.956;9.222;2024-02-21T14:27:31;13.00;1.00
4054;DHT22;2042;47.956;9.222;2024-02-21T14:29:57;12.80;1.00
4054;DHT22;2042;47.956;9.222;2024-02-21T14:32:23;12.70;1.00
4054;DHT22;2042;47.956;9.222;2024-02-21T14:34:49;12.50;1.00
4054;DHT22;2042;47.956;9.222;2024-02-21T14:37:15;12.30;1.00
4054;DHT22;2042;47.956;9.222;2024-02-21T14:39:41;12.10;1.00
4054;DHT22;2042;47.956;9.222;2024-02-21T14:42:07;12.20;1.00
4054;DHT22;2042;47.956;9.222;2024-02-21T14:44:36;12.10;1.00
4054;DHT22;2042;47.956;9.222;2024-02-21T14:47:02;12.10;1.00
4054;DHT22;2042;47.956;9.222;2024-02-21T14:49:29;12.10;1.00
4054;DHT22;2042;47.956;9.222;2024-02-21T14:51:54;12.10;1.00
4054;DHT22;2042;47.956;9.222;2024-02-21T14:54:20;12.00;1.00
4054;DHT22;2042;47.956;9.222;2024-02-21T14:56:47;12.00;1.00
4054;DHT22;2042;47.956;9.222;2024-02-21T14:59:13;12.00;1.00
4054;DHT22;2042;47.956;9.222;2024-02-21T15:01:38;11.90;1.00
4054;DHT22;2042;47.956;9.222;2024-02-21T15:04:05;11.90;1.00
4054;DHT22;2042;47.956;9.222;2024-02-21T15:06:31;11.90;1.00
4054;DHT22;2042;47.956;9.222;2024-02-21T15:08:58;11.80;1.00
4054;DHT22;2042;47.956;9.222;2024-02-21T15:11:24;11.60;1.00
4054;DHT22;2042;47.956;9.222;2024-02-21T15:13:49;11.40;1.00
4054;DHT22;2042;47.956;9.222;2024-02-21T15:16:15;11.30;1.00
4054;DHT22;2042;47.956;9.222;2024-02-21T15:18:44;11.20;1.00
4054;DHT22;2042;47.956;9.222;2024-02-21T15:21:09;11.20;1.00
4054;DHT22;2042;47.956;9.222;2024-02-21T15:23:39;11.00;1.00
4054;DHT22;2042;47.956;9.222;2024-02-21T15:26:05;10.90;1.00
4054;DHT22;2042;47.956;9.222;2024-02-21T15:28:31;10.80;1.00
4054;DHT22;2042;47.956;9.222;2024-02-21T15:30:57;10.90;1.00
4054;DHT22;2042;47.956;9.222;2024-02-21T15:33:23;10.90;1.00
4054;DHT22;2042;47.956;9.222;2024-02-21T15:35:49;10.70;1.00
4054;DHT22;2042;47.956;9.222;2024-02-21T15:38:15;10.60;1.00
4054;DHT22;2042;47.956;9.222;2024-02-21T15:40:40;10.60;1.00
4054;DHT22;2042;47.956;9.222;2024-02-21T15:43:06;10.60;1.00
4054;DHT22;2042;47.956;9.222;2024-02-21T15:45:33;10.50;1.00
4054;DHT22;2042;47.956;9.222;2024-02-21T15:47:59;10.40;1.00
4054;DHT22;2042;47.956;9.222;2024-02-21T15:50:24;10.30;1.00
4054;DHT22;2042;47.956;9.222;2024-02-21T15:52:54;10.20;1.00
4054;DHT22;2042;47.956;9.222;2024-02-21T15:55:20;10.00;1.00
4054;DHT22;2042;47.956;9.222;2024-02-21T15:57:46;9.80;1.00
4054;DHT22;2042;47.956;9.222;2024-02-21T16:00:12;9.70;1.00
4054;DHT22;2042;47.956;9.222;2024-02-21T16:02:39;9.50;1.00
4054;DHT22;2042;47.956;9.222;2024-02-21T16:05:10;9.40;1.00
4054;DHT22;2042;47.956;9.222;2024-02-21T16:07:39;9.30;1.00
4054;DHT22;2042;47.956;9.222;2024-02-21T16:10:06;9.20;1.00
4054;DHT22;2042;47.956;9.222;2024-02-21T16:12:32;9.20;1.00
4054;DHT22;2042;47.956;9.222;2024-02-21T16:14:58;9.10;1.00
4054;DHT22;2042;47.956;9.222;2024-02-21T16:17:24;9.00;1.00
4054;DHT22;2042;47.956;9.222;2024-02-21T16:19:49;8.90;1.00
4054;DHT22;2042;47.956;9.222;2024-02-21T16:22:15;8.80;1.00
4054;DHT22;2042;47.956;9.222;2024-02-21T16:24:41;8.70;1.00
4054;DHT22;2042;47.956;9.222;2024-02-21T16:27:06;8.60;1.00
4054;DHT22;2042;47.956;9.222;2024-02-21T16:29:36;8.50;1.00
4054;DHT22;2042;47.956;9.222;2024-02-21T16:32:02;8.50;1.00
4054;DHT22;2042;47.956;9.222;2024-02-21T16:34:28;8.40;1.00
4054;DHT22;2042;47.956;9.222;2024-02-21T16:36:55;8.40;1.00
4054;DHT22;2042;47.956;9.222;2024-02-21T16:39:23;8.30;1.00
4054;DHT22;2042;47.956;9.222;2024-02-21T16:41:48;8.30;1.00
4054;DHT22;2042;47.956;9.222;2024-02-21T16:44:14;8.30;1.00
4054;DHT22;2042;47.956;9.222;2024-02-21T16:46:40;8.20;1.00
4054;DHT22;2042;47.956;9.222;2024-02-21T16:49:06;8.20;1.00
4054;DHT22;2042;47.956;9.222;2024-02-21T16:51:32;8.20;1.00
4054;DHT22;2042;47.956;9.222;2024-02-21T16:53:58;8.10;1.00
4054;DHT22;2042;47.956;9.222;2024-02-21T16:56:25;8.20;1.00
4054;DHT22;2042;47.956;9.222;2024-02-21T16:58:50;8.10;1.00
4054;DHT22;2042;47.956;9.222;2024-02-21T17:01:16;8.10;1.00
4054;DHT22;2042;47.956;9.222;2024-02-21T17:03:41;8.00;1.00
4054;DHT22;2042;47.956;9.222;2024-02-21T17:06:07;7.90;1.00
4054;DHT22;2042;47.956;9.222;2024-02-21T17:08:33;7.80;1.00
4054;DHT22;2042;47.956;9.222;2024-02-21T17:10:59;7.80;1.00
4054;DHT22;2042;47.956;9.222;2024-02-21T17:13:24;7.80;1.00
4054;DHT22;2042;47.956;9.222;2024-02-21T17:15:51;7.70;1.00
4054;DHT22;2042;47.956;9.222;2024-02-21T17:18:17;7.60;1.00